createdAt,value
2022-09-16T00:02:18.908Z,97583.36
2022-09-16T00:04:51.106Z,97584.89
2022-09-16T00:07:23.119Z,97590.14
2022-09-16T00:09:55.301Z,97591.86
2022-09-16T00:12:27.346Z,97594.07
2022-09-16T00:14:59.418Z,97595.84
2022-09-16T00:17:31.774Z,97595.50
2022-09-16T00:20:04.429Z,97597.97
2022-09-16T00:22:37.583Z,97598.50
2022-09-16T00:25:12.942Z,97600.98
2022-09-16T00:27:48.569Z,97607.11
2022-09-16T00:30:22.026Z,97600.31
2022-09-16T00:32:57.534Z,97601.17
2022-09-16T00:35:30.216Z,97597.83
2022-09-16T00:38:03.817Z,97601.23
2022-09-16T00:40:44.946Z,97605.54
2022-09-16T00:43:21.410Z,97603.04
2022-09-16T00:46:01.962Z,97606.12
2022-09-16T00:48:37.714Z,97608.53
2022-09-16T00:51:13.341Z,97602.00
2022-09-16T00:53:54.397Z,97607.67
2022-09-16T00:56:29.655Z,97608.90
2022-09-16T00:59:09.287Z,97607.15
2022-09-16T01:01:45.556Z,97604.11
2022-09-16T01:04:21.441Z,97605.30
2022-09-16T01:06:55.554Z,97613.55
2022-09-16T01:09:29.338Z,97615.40
2022-09-16T01:12:03.163Z,97621.88
2022-09-16T01:14:53.120Z,97619.41
2022-09-16T01:17:31.489Z,97616.71
2022-09-16T01:20:29.328Z,97617.71
2022-09-16T01:23:20.351Z,97617.80
2022-09-16T01:26:06.146Z,97619.85
2022-09-16T01:29:11.269Z,97615.42
2022-09-16T01:31:47.129Z,97614.20
2022-09-16T01:34:30.219Z,97611.27
2022-09-16T01:37:07.929Z,97609.93
2022-09-16T01:39:45.689Z,97608.56
2022-09-16T01:42:28.365Z,97614.61
2022-09-16T01:45:05.688Z,97615.10
2022-09-16T01:47:41.273Z,97612.14
2022-09-16T01:50:19.479Z,97604.86
2022-09-16T01:53:03.975Z,97602.38
2022-09-16T01:55:42.563Z,97601.40
2022-09-16T01:58:18.866Z,97606.48
2022-09-16T02:00:52.005Z,97608.91
2022-09-16T02:03:28.347Z,97605.03
2022-09-16T02:06:05.744Z,97606.02
2022-09-16T02:08:42.025Z,97599.20
2022-09-16T02:11:18.205Z,97603.16
2022-09-16T02:13:55.394Z,97612.05
2022-09-16T02:16:29.968Z,97621.41
2022-09-16T02:19:03.825Z,97619.96
2022-09-16T02:21:45.420Z,97621.55
2022-09-16T02:24:21.217Z,97624.84
2022-09-16T02:27:00.929Z,97627.45
2022-09-16T02:29:44.263Z,97629.09
2022-09-16T02:32:17.376Z,97633.27
2022-09-16T02:34:50.605Z,97633.64
2022-09-16T02:37:26.394Z,97635.16
2022-09-16T02:40:02.331Z,97632.59
2022-09-16T02:42:35.464Z,97628.90
2022-09-16T02:45:11.280Z,97629.70
2022-09-16T02:47:48.625Z,97633.92
2022-09-16T02:50:27.291Z,97628.73
2022-09-16T02:53:02.608Z,97632.85
2022-09-16T02:55:40.949Z,97634.96
2022-09-16T02:58:15.144Z,97632.42
2022-09-16T03:00:49.683Z,97626.33
2022-09-16T03:03:24.471Z,97622.80
2022-09-16T03:06:18.547Z,97624.41
2022-09-16T03:08:51.743Z,97630.04
2022-09-16T03:11:48.107Z,97632.56
2022-09-16T03:14:38.934Z,97627.32
2022-09-16T03:17:22.062Z,97627.66
2022-09-16T03:20:07.334Z,97625.12
2022-09-16T03:22:50.359Z,97630.04
2022-09-16T03:25:29.752Z,97633.54
2022-09-16T03:28:09.255Z,97631.38
2022-09-16T03:30:48.721Z,97632.46
2022-09-16T03:33:28.380Z,97631.48
2022-09-16T03:36:02.368Z,97633.40
2022-09-16T03:38:36.881Z,97633.34
2022-09-16T03:41:11.016Z,97630.92
2022-09-16T03:43:44.045Z,97636.19
2022-09-16T03:46:18.280Z,97641.37
2022-09-16T03:48:52.459Z,97634.90
2022-09-16T03:51:26.112Z,97632.36
2022-09-16T03:53:58.644Z,97638.54
2022-09-16T03:56:32.344Z,97633.89
2022-09-16T03:59:04.842Z,97637.64
2022-09-16T04:01:38.488Z,97631.08
2022-09-16T04:04:13.430Z,97629.98
2022-09-16T04:06:48.216Z,97631.81
2022-09-16T04:09:23.013Z,97629.73
2022-09-16T04:11:58.663Z,97627.83
2022-09-16T04:14:31.248Z,97630.67
2022-09-16T04:17:04.271Z,97633.11
2022-09-16T04:19:36.306Z,97630.98
2022-09-16T04:22:09.718Z,97628.45
2022-09-16T04:24:42.609Z,97628.23
2022-09-16T04:27:16.802Z,97627.39
2022-09-16T04:29:49.264Z,97624.39
2022-09-16T04:32:23.071Z,97629.21
2022-09-16T04:35:01.279Z,97626.23
2022-09-16T04:37:34.424Z,97618.70
2022-09-16T04:40:09.551Z,97619.96
2022-09-16T04:42:41.828Z,97626.30
2022-09-16T04:45:14.675Z,97626.96
2022-09-16T04:47:47.676Z,97626.01
2022-09-16T04:50:20.081Z,97627.11
2022-09-16T04:52:56.194Z,97622.39
2022-09-16T04:55:30.196Z,97622.58
2022-09-16T04:58:07.141Z,97624.79
2022-09-16T05:00:43.327Z,97618.16
2022-09-16T05:03:16.134Z,97619.54
2022-09-16T05:05:49.651Z,97619.66
2022-09-16T05:08:25.883Z,97620.42
2022-09-16T05:11:03.316Z,97622.97
2022-09-16T05:13:37.012Z,97622.02
2022-09-16T05:16:12.180Z,97621.84
2022-09-16T05:18:47.546Z,97622.34
2022-09-16T05:21:21.196Z,97621.77
2022-09-16T05:23:57.848Z,97620.55
2022-09-16T05:26:32.849Z,97615.96
2022-09-16T05:29:12.244Z,97618.25
2022-09-16T05:31:47.576Z,97619.12
2022-09-16T05:34:23.328Z,97627.20
2022-09-16T05:36:57.249Z,97627.96
2022-09-16T05:39:29.687Z,97628.80
2022-09-16T05:42:05.968Z,97633.17
2022-09-16T05:44:40.815Z,97636.52
2022-09-16T05:47:17.025Z,97639.36
2022-09-16T05:49:54.980Z,97639.64
2022-09-16T05:52:30.190Z,97638.06
2022-09-16T05:55:04.681Z,97635.11
2022-09-16T05:57:38.037Z,97634.81
2022-09-16T06:00:12.775Z,97640.04
2022-09-16T06:02:47.555Z,97639.12
2022-09-16T06:05:23.467Z,97628.74
2022-09-16T06:07:59.790Z,97629.30
2022-09-16T06:10:32.125Z,97624.73
2022-09-16T06:13:05.328Z,97623.02
2022-09-16T06:15:39.526Z,97617.08
2022-09-16T06:18:16.034Z,97610.55
2022-09-16T06:20:51.271Z,97614.61
2022-09-16T06:23:25.771Z,97620.95
2022-09-16T06:26:07.709Z,97617.02
2022-09-16T06:28:41.009Z,97624.27
2022-09-16T06:31:17.033Z,97625.00
2022-09-16T06:33:52.682Z,97626.75
2022-09-16T06:36:27.998Z,97624.27
2022-09-16T06:39:00.702Z,97624.91
2022-09-16T06:41:34.689Z,97622.98
2022-09-16T06:44:07.146Z,97633.39
2022-09-16T06:46:42.784Z,97635.17
2022-09-16T06:49:14.918Z,97632.35
2022-09-16T06:51:48.254Z,97626.80
2022-09-16T06:54:21.199Z,97625.98
2022-09-16T06:56:54.903Z,97633.60
2022-09-16T06:59:29.161Z,97635.67
2022-09-16T07:02:02.658Z,97639.40
2022-09-16T07:04:35.617Z,97636.21
2022-09-16T07:07:10.876Z,97639.62
2022-09-16T07:09:43.165Z,97639.45
2022-09-16T07:12:19.755Z,97635.44
2022-09-16T07:14:53.192Z,97634.39
2022-09-16T07:17:27.326Z,97640.34
2022-09-16T07:19:59.156Z,97642.44
2022-09-16T07:22:34.847Z,97644.30
2022-09-16T07:25:09.015Z,97651.16
2022-09-16T07:27:41.338Z,97653.35
2022-09-16T07:30:15.703Z,97653.73
2022-09-16T07:32:47.696Z,97648.79
2022-09-16T07:35:22.010Z,97649.48
2022-09-16T07:37:54.066Z,97649.36
2022-09-16T07:40:29.767Z,97647.02
2022-09-16T07:43:01.831Z,97649.28
2022-09-16T07:45:34.441Z,97653.61
2022-09-16T07:48:07.989Z,97658.44
2022-09-16T07:50:41.679Z,97656.31
2022-09-16T07:53:13.960Z,97659.35
2022-09-16T07:55:47.108Z,97666.45
2022-09-16T07:58:20.752Z,97671.80
2022-09-16T08:00:53.321Z,97670.05
2022-09-16T08:03:25.473Z,97665.20
2022-09-16T08:06:02.699Z,97671.19
2022-09-16T08:08:35.290Z,97675.23
2022-09-16T08:11:09.794Z,97666.51
2022-09-16T08:13:42.223Z,97666.61
2022-09-16T08:16:16.022Z,97664.66
2022-09-16T08:18:49.726Z,97669.90
2022-09-16T08:21:25.115Z,97661.01
2022-09-16T08:23:57.589Z,97656.20
2022-09-16T08:26:31.316Z,97658.12
2022-09-16T08:29:08.813Z,97657.14
2022-09-16T08:31:42.562Z,97659.30
2022-09-16T08:34:16.474Z,97663.46
2022-09-16T08:36:48.279Z,97658.81
2022-09-16T08:39:22.407Z,97657.36
2022-09-16T08:42:33.442Z,97664.69
2022-09-16T08:45:16.490Z,97669.77
2022-09-16T08:48:01.362Z,97666.96
2022-09-16T08:50:37.465Z,97662.21
2022-09-16T08:53:16.642Z,97666.22
2022-09-16T08:55:50.793Z,97671.56
2022-09-16T08:58:26.697Z,97670.46
2022-09-16T09:01:02.769Z,97666.03
2022-09-16T09:03:38.837Z,97665.66
2022-09-16T09:06:19.896Z,97658.00
2022-09-16T09:09:04.291Z,97654.73
2022-09-16T09:11:42.090Z,97656.02
2022-09-16T09:14:29.607Z,97660.06
2022-09-16T09:17:08.850Z,97659.69
2022-09-16T09:19:51.859Z,97662.00
2022-09-16T09:22:45.572Z,97668.59
2022-09-16T09:25:36.312Z,97666.88
2022-09-16T09:28:21.442Z,97664.97
2022-09-16T09:31:00.799Z,97664.05
2022-09-16T09:33:46.536Z,97663.82
2022-09-16T09:36:40.945Z,97662.61
2022-09-16T09:39:38.386Z,97659.39
2022-09-16T09:42:15.733Z,97659.86
2022-09-16T09:45:03.184Z,97660.17
2022-09-16T09:47:40.753Z,97661.76
2022-09-16T09:50:19.220Z,97659.66
2022-09-16T09:52:57.579Z,97648.45
2022-09-16T09:55:33.066Z,97660.32
2022-09-16T09:58:21.266Z,97664.02
2022-09-16T10:00:56.375Z,97662.33
2022-09-16T10:03:30.979Z,97655.08
2022-09-16T10:06:04.440Z,97649.09
2022-09-16T10:08:42.875Z,97644.30
2022-09-16T10:11:21.821Z,97639.79
2022-09-16T10:13:55.922Z,97628.78
2022-09-16T10:16:32.458Z,97625.08
2022-09-16T10:19:10.501Z,97624.23
2022-09-16T10:21:48.698Z,97627.51
2022-09-16T10:24:42.307Z,97620.53
2022-09-16T10:27:27.291Z,97622.85
2022-09-16T10:30:15.429Z,97626.08
2022-09-16T10:32:56.411Z,97620.27
2022-09-16T10:35:30.486Z,97618.98
2022-09-16T10:38:08.089Z,97621.46
2022-09-16T10:40:41.274Z,97626.81
2022-09-16T10:43:18.778Z,97631.78
2022-09-16T10:45:53.041Z,97623.23
2022-09-16T10:48:28.620Z,97623.33
2022-09-16T10:51:02.555Z,97627.61
2022-09-16T10:53:39.656Z,97636.64
2022-09-16T10:56:22.873Z,97636.45
2022-09-16T10:59:10.623Z,97624.85
2022-09-16T11:01:51.147Z,97627.64
2022-09-16T11:04:46.027Z,97625.17
2022-09-16T11:07:33.383Z,97620.28
2022-09-16T11:10:16.411Z,97619.14
2022-09-16T11:13:16.208Z,97616.98
2022-09-16T11:16:04.031Z,97616.33
2022-09-16T11:18:57.122Z,97611.27
2022-09-16T11:21:39.809Z,97608.20
2022-09-16T11:24:23.040Z,97607.20
2022-09-16T11:27:01.058Z,97604.18
2022-09-16T11:29:53.789Z,97601.34
2022-09-16T11:32:36.289Z,97599.48
2022-09-16T11:35:27.476Z,97597.12
2022-09-16T11:38:05.380Z,97584.02
2022-09-16T11:40:52.050Z,97583.92
2022-09-16T11:43:48.473Z,97582.08
2022-09-16T11:46:27.418Z,97574.71
2022-09-16T11:49:14.995Z,97573.20
2022-09-16T11:52:02.303Z,97577.21
2022-09-16T11:54:48.251Z,97581.52
2022-09-16T11:57:22.226Z,97577.80
2022-09-16T11:59:59.154Z,97576.53
2022-09-16T12:02:37.282Z,97578.67
2022-09-16T12:05:19.495Z,97577.91
2022-09-16T12:07:56.859Z,97568.89
2022-09-16T12:10:38.578Z,97566.55
2022-09-16T12:13:17.031Z,97561.85
2022-09-16T12:15:52.395Z,97557.88
2022-09-16T12:18:28.340Z,97558.04
2022-09-16T12:21:07.878Z,97555.92
2022-09-16T12:23:44.727Z,97554.12
2022-09-16T12:26:21.847Z,97550.61
2022-09-16T12:29:00.859Z,97554.15
2022-09-16T12:31:38.109Z,97554.20
2022-09-16T12:34:15.641Z,97553.04
2022-09-16T12:36:51.186Z,97558.02
2022-09-16T12:39:25.059Z,97558.15
2022-09-16T12:42:17.699Z,97551.94
2022-09-16T12:45:07.211Z,97547.27
2022-09-16T12:47:59.471Z,97545.89
2022-09-16T12:51:01.721Z,97547.45
2022-09-16T12:53:54.091Z,97540.11
2022-09-16T12:56:40.527Z,97532.20
2022-09-16T12:59:34.994Z,97535.12
2022-09-16T13:02:17.351Z,97531.46
2022-09-16T13:04:51.803Z,97526.23
2022-09-16T13:07:28.668Z,97527.12
2022-09-16T13:10:07.278Z,97529.00
2022-09-16T13:12:43.950Z,97531.36
2022-09-16T13:15:28.536Z,97536.13
2022-09-16T13:18:11.959Z,97546.29
2022-09-16T13:20:49.360Z,97544.36
2022-09-16T13:23:24.941Z,97547.05
2022-09-16T13:26:04.277Z,97565.17
2022-09-16T13:28:41.499Z,97562.13
2022-09-16T13:31:34.310Z,97565.04
2022-09-16T13:34:19.200Z,97567.89
2022-09-16T13:36:52.367Z,97569.29
2022-09-16T13:39:36.085Z,97566.35
2022-09-16T13:42:21.676Z,97569.95
2022-09-16T13:44:56.039Z,97576.43
2022-09-16T13:47:41.833Z,97573.90
2022-09-16T13:50:18.258Z,97573.33
2022-09-16T13:52:50.786Z,97571.98
2022-09-16T13:55:25.783Z,97568.39
2022-09-16T13:58:03.484Z,97570.10
2022-09-16T14:00:42.341Z,97569.27
2022-09-16T14:03:29.186Z,97569.85
2022-09-16T14:06:23.124Z,97571.85
2022-09-16T14:09:03.298Z,97570.80
2022-09-16T14:11:39.973Z,97567.96
2022-09-16T14:14:30.086Z,97569.16
2022-09-16T14:17:17.585Z,97569.61
2022-09-16T14:19:52.522Z,97575.29
2022-09-16T14:22:27.669Z,97562.84
2022-09-16T14:25:26.235Z,97550.33
2022-09-16T14:28:07.403Z,97556.55
2022-09-16T14:30:46.459Z,97559.27
2022-09-16T14:33:21.567Z,97555.89
2022-09-16T14:35:56.841Z,97539.23
2022-09-16T14:38:45.664Z,97541.98
2022-09-16T14:41:25.693Z,97551.73
2022-09-16T14:44:05.576Z,97555.64
2022-09-16T14:46:46.308Z,97555.63
2022-09-16T14:49:20.749Z,97549.48
2022-09-16T14:51:55.354Z,97544.20
2022-09-16T14:54:29.414Z,97543.42
2022-09-16T14:57:06.582Z,97543.95
2022-09-16T14:59:42.869Z,97540.09
2022-09-16T15:02:23.840Z,97534.30
2022-09-16T15:05:03.086Z,97526.38
2022-09-16T15:07:50.635Z,97523.80
2022-09-16T15:10:39.710Z,97521.39
2022-09-16T15:13:25.946Z,97524.70
2022-09-16T15:16:04.656Z,97529.48
2022-09-16T15:18:41.260Z,97526.77
2022-09-16T15:21:21.172Z,97526.38
2022-09-16T15:23:56.905Z,97522.90
2022-09-16T15:26:33.189Z,97523.94
2022-09-16T15:29:08.304Z,97520.30
2022-09-16T15:31:44.973Z,97519.19
2022-09-16T15:34:24.913Z,97515.79
2022-09-16T15:36:59.101Z,97515.22
2022-09-16T15:39:35.878Z,97508.45
2022-09-16T15:42:15.730Z,97510.65
2022-09-16T15:44:53.792Z,97509.23
2022-09-16T15:47:30.105Z,97508.39
2022-09-16T15:50:04.664Z,97501.77
2022-09-16T15:52:52.858Z,97498.37
2022-09-16T15:55:33.649Z,97500.69
2022-09-16T15:58:12.055Z,97506.73
2022-09-16T16:01:07.927Z,97503.91
2022-09-16T16:03:50.413Z,97505.52
2022-09-16T16:06:23.652Z,97499.64
2022-09-16T16:08:58.197Z,97504.18
2022-09-16T16:11:31.354Z,97506.77
2022-09-16T16:14:06.118Z,97506.72
2022-09-16T16:17:01.566Z,97508.43
2022-09-16T16:20:23.241Z,97511.04
2022-09-16T16:22:58.615Z,97512.92
2022-09-16T16:25:38.128Z,97509.95
2022-09-16T16:28:12.345Z,97512.85
2022-09-16T16:30:52.096Z,97513.82
2022-09-16T16:33:25.692Z,97513.70
2022-09-16T16:36:23.508Z,97503.22
2022-09-16T16:39:00.109Z,97499.23
2022-09-16T16:41:37.629Z,97498.90
2022-09-16T16:44:12.874Z,97498.70
2022-09-16T16:46:50.597Z,97494.50
2022-09-16T16:49:27.717Z,97492.71
2022-09-16T16:55:10.464Z,97496.73
2022-09-16T16:57:46.066Z,97501.02
2022-09-16T17:04:02.475Z,97504.16
2022-09-16T17:07:02.680Z,97502.15
2022-09-16T17:09:51.121Z,97499.71
2022-09-16T17:13:11.279Z,97504.64
2022-09-16T17:15:49.987Z,97514.98
2022-09-16T17:18:27.541Z,97511.14
2022-09-16T17:21:11.522Z,97514.83
2022-09-16T17:23:55.155Z,97517.73
2022-09-16T17:26:29.694Z,97522.17
2022-09-16T17:29:36.250Z,97522.84
2022-09-16T17:32:19.012Z,97522.59
2022-09-16T17:34:53.271Z,97521.77
2022-09-16T17:37:25.619Z,97520.05
2022-09-16T17:40:10.181Z,97517.19
2022-09-16T17:42:48.103Z,97518.20
2022-09-16T17:46:12.299Z,97518.11
2022-09-16T17:49:14.760Z,97517.63
2022-09-16T17:52:12.754Z,97519.88
2022-09-16T17:54:48.112Z,97520.58
2022-09-16T18:00:58.386Z,97518.80
2022-09-16T18:03:46.181Z,97523.63
2022-09-16T18:09:30.141Z,97535.41
2022-09-16T18:12:16.097Z,97536.92
2022-09-16T18:14:51.390Z,97534.17
2022-09-16T18:17:29.925Z,97529.55
2022-09-16T18:20:07.405Z,97530.72
2022-09-16T18:22:46.440Z,97532.52
2022-09-16T18:25:22.521Z,97537.00
2022-09-16T18:28:00.773Z,97537.40
2022-09-16T18:31:01.588Z,97532.86
2022-09-16T18:33:43.542Z,97530.96
2022-09-16T18:37:11.755Z,97534.97
2022-09-16T18:39:49.242Z,97544.80
2022-09-16T18:42:22.394Z,97549.09
2022-09-16T18:44:57.172Z,97554.37
2022-09-16T18:47:34.114Z,97561.46
2022-09-16T18:50:10.221Z,97561.04
2022-09-16T18:53:17.195Z,97559.48
2022-09-16T18:55:52.092Z,97556.94
2022-09-16T18:59:19.473Z,97557.60
2022-09-16T19:01:56.185Z,97562.33
2022-09-16T19:04:39.496Z,97564.80
2022-09-16T19:07:19.472Z,97564.11
2022-09-16T19:09:52.070Z,97560.20
2022-09-16T19:12:39.274Z,97561.23
2022-09-16T19:15:39.727Z,97568.22
2022-09-16T19:18:15.242Z,97570.55
2022-09-16T19:20:52.879Z,97570.15
2022-09-16T19:23:27.885Z,97574.15
2022-09-16T19:26:10.888Z,97571.50
2022-09-16T19:32:06.926Z,97572.60
2022-09-16T19:34:51.111Z,97570.92
2022-09-16T19:38:12.350Z,97568.98
2022-09-16T19:40:49.051Z,97565.08
2022-09-16T19:43:26.542Z,97564.00
2022-09-16T19:46:12.217Z,97559.89
2022-09-16T19:48:49.331Z,97560.34
2022-09-16T19:51:51.485Z,97557.34
2022-09-16T19:54:37.179Z,97558.27
2022-09-16T19:57:16.686Z,97558.73
2022-09-16T20:03:16.509Z,97560.08
2022-09-16T20:06:13.549Z,97564.14
2022-09-16T20:08:50.321Z,97559.64
2022-09-16T20:11:29.758Z,97558.55
2022-09-16T20:14:34.465Z,97555.45
2022-09-16T20:17:33.196Z,97559.05
2022-09-16T20:20:08.731Z,97558.70
2022-09-16T20:22:43.859Z,97558.23
2022-09-16T20:25:49.451Z,97562.23
2022-09-16T20:28:23.593Z,97557.31
2022-09-16T20:31:24.712Z,97563.83
2022-09-16T20:34:12.052Z,97568.27
2022-09-16T20:37:11.551Z,97572.19
2022-09-16T20:39:48.327Z,97576.84
2022-09-16T20:42:47.050Z,97580.96
2022-09-16T20:45:49.452Z,97582.15
2022-09-16T20:48:28.831Z,97579.98
2022-09-16T20:51:07.462Z,97578.45
2022-09-16T20:53:45.236Z,97580.98
2022-09-16T20:59:25.809Z,97580.90
2022-09-16T21:02:02.934Z,97580.09
2022-09-16T21:04:37.213Z,97581.11
2022-09-16T21:07:09.998Z,97581.20
2022-09-16T21:09:43.670Z,97583.67
2022-09-16T21:13:07.558Z,97583.15
2022-09-16T21:15:45.208Z,97579.05
2022-09-16T21:19:10.575Z,97580.98
2022-09-16T21:25:16.083Z,97581.61
2022-09-16T21:28:37.638Z,97580.05
2022-09-16T21:31:18.450Z,97582.95
2022-09-16T21:33:58.941Z,97588.81
2022-09-16T21:36:32.271Z,97590.23
2022-09-16T21:39:28.817Z,97592.30
2022-09-16T21:42:00.571Z,97591.68
2022-09-16T21:44:35.035Z,97595.38
2022-09-16T21:47:12.191Z,97596.61
2022-09-16T21:49:44.271Z,97597.80
2022-09-16T21:52:17.521Z,97597.45
2022-09-16T21:54:49.648Z,97598.70
2022-09-16T21:57:21.535Z,97596.16
2022-09-16T21:59:55.503Z,97592.33
2022-09-16T22:02:29.286Z,97599.80
2022-09-16T22:05:02.556Z,97607.88
2022-09-16T22:07:34.469Z,97608.00
2022-09-16T22:10:07.684Z,97609.33
2022-09-16T22:12:40.352Z,97610.91
2022-09-16T22:15:13.482Z,97616.27
2022-09-16T22:17:51.909Z,97616.69
2022-09-16T22:20:25.410Z,97619.44
2022-09-16T22:22:57.530Z,97613.67
2022-09-16T22:25:29.479Z,97616.45
2022-09-16T22:28:02.884Z,97615.57
2022-09-16T22:30:36.728Z,97611.17
2022-09-16T22:33:09.529Z,97612.14
2022-09-16T22:35:42.296Z,97611.20
2022-09-16T22:38:14.207Z,97608.78
2022-09-16T22:40:48.723Z,97606.16
2022-09-16T22:43:20.930Z,97605.60
2022-09-16T22:45:52.900Z,97602.86
2022-09-16T22:48:24.794Z,97602.59
2022-09-16T22:51:02.650Z,97601.55
2022-09-16T22:53:36.489Z,97605.76
2022-09-16T22:56:12.187Z,97611.48
2022-09-16T22:58:44.758Z,97609.59
2022-09-16T23:01:20.034Z,97609.60
2022-09-16T23:03:57.230Z,97606.60
2022-09-16T23:06:32.814Z,97607.17
2022-09-16T23:09:05.036Z,97606.85
2022-09-16T23:11:38.581Z,97605.09
2022-09-16T23:14:11.489Z,97602.96
2022-09-16T23:16:43.584Z,97600.49
2022-09-16T23:19:17.192Z,97598.32
2022-09-16T23:21:51.205Z,97592.68
2022-09-16T23:24:24.566Z,97587.88
2022-09-16T23:26:57.062Z,97583.37
2022-09-16T23:29:28.992Z,97579.42
2022-09-16T23:32:03.963Z,97581.22
2022-09-16T23:34:38.002Z,97580.25
2022-09-16T23:37:10.364Z,97584.16
2022-09-16T23:39:43.903Z,97587.64
2022-09-16T23:42:17.013Z,97587.86
2022-09-16T23:44:49.418Z,97587.88
2022-09-16T23:47:23.386Z,97590.17
2022-09-16T23:49:55.374Z,97590.45
2022-09-16T23:52:27.304Z,97590.66
2022-09-16T23:55:00.383Z,97589.63
2022-09-16T23:57:38.076Z,97590.39
